FW3304 Weather Reports


Display with metric or nautical units.
time (UTC)temp
F
wind
direction
speed
MPH
gust
MPH
rain 1hr
in
rain 24hr
in
rain mn
in
humidity
%
barometer
mb
20240624123019 75 45 2.0 4.0 0.00 0.25 0.00 92 1013.7
20240624123017 75 38 0.0 4.0 0.00 0.25 0.00 92 1016.1
20240624121507 74 9 0.0 0.0 0.00 0.25 0.00 96 1013.5
20240624120037 72 0.0 0.0 0.00 0.25 0.00 97 1015.8
20240624120006 72 339 0.0 0.0 0.00 0.25 0.00 97 1013.4
20240624114615 71 343 0.0 0.0 0.00 0.25 0.00 98 1013.2
20240624113103 70 343 0.0 0.0 0.00 0.25 0.00 97 1013.1
20240624113017 70 0.0 0.0 0.00 0.25 0.00 97 1015.5
20240624111600 69 343 0.0 0.0 0.00 0.25 0.00 97 1013.1
20240624110053 68 343 0.0 0.0 0.00 0.25 0.00 97 1012.8
20240624110016 68 0.0 0.0 0.00 0.25 0.00 97 1015.2
20240624104551 68 343 0.0 0.0 0.00 0.25 0.00 96 1012.7
20240624103051 68 343 0.0 0.0 0.00 0.25 0.00 96 1012.6
20240624103018 68 0.0 0.0 0.00 0.25 0.00 96 1014.8
20240624101552 68 343 0.0 0.0 0.00 0.25 0.00 96 1012.4
20240624100045 68 343 0.0 0.0 0.00 0.25 0.00 96 1012.2
20240624100016 68 0.0 0.0 0.00 0.25 0.00 96 1014.6
20240624094544 69 343 0.0 0.0 0.00 0.25 0.00 96 1012.2
20240624093052 69 343 0.0 0.0 0.00 0.25 0.00 96 1011.9
20240624093016 69 0.0 1.0 0.00 0.25 0.00 96 1014.3
20240624091537 69 343 0.0 0.0 0.00 0.25 0.00 96 1011.7
20240624090042 69 343 0.0 0.0 0.00 0.25 0.00 96 1011.7
20240624090016 69 336 0.0 1.0 0.00 0.25 0.00 96 1014.1
20240624084534 69 343 0.0 0.0 0.00 0.25 0.00 96 1011.5
20240624083042 69 342 0.0 1.0 0.00 0.25 0.00 96 1011.5
20240624083016 69 336 0.0 1.0 0.00 0.25 0.00 96 1013.9
20240624081532 69 342 0.0 0.0 0.00 0.25 0.00 95 1011.7
20240624080031 70 342 0.0 1.0 0.00 0.25 0.00 96 1011.5
20240624080017 70 336 0.0 1.0 0.00 0.25 0.00 96 1014.0
20240624074530 70 342 0.0 0.0 0.00 0.25 0.00 96 1011.5
20240624073029 70 342 0.0 0.0 0.00 0.25 0.00 95 1011.5
20240624073016 70 336 0.0 1.0 0.00 0.25 0.00 95 1014.0
20240624071527 70 342 0.0 1.0 0.00 0.25 0.00 95 1011.5
20240624070031 71 342 0.0 0.0 0.00 0.25 0.00 95 1011.4
20240624070017 71 0.0 0.0 0.00 0.25 0.00 95 1013.9
20240624064525 70 342 0.0 0.0 0.00 0.25 0.00 95 1011.5
20240624063025 71 342 0.0 0.0 0.00 0.25 0.00 94 1011.4
20240624063017 70 0.0 0.0 0.00 0.25 0.00 94 1013.9
20240624061526 71 342 0.0 0.0 0.00 0.25 0.00 94 1011.4
20240624060023 71 342 0.0 0.0 0.00 0.25 0.00 94 1011.4
20240624060016 71 0.0 0.0 0.00 0.25 0.00 94 1013.7
20240624054519 71 342 0.0 0.0 0.00 0.25 0.00 93 1011.4
20240624053038 71 0.0 0.0 0.00 0.25 0.00 93 1013.7
20240624053017 71 342 0.0 0.0 0.00 0.25 0.00 93 1011.3
20240624051514 72 342 0.0 0.0 0.00 0.25 0.00 92 1011.4
20240624050016 72 0.0 0.0 0.00 0.25 0.25 92 1013.6
20240624050012 72 342 0.0 0.0 0.00 0.25 0.25 92 1011.3
20240624044510 73 342 0.0 0.0 0.00 0.25 0.25 91 1011.2
20240624043017 73 0.0 0.0 0.00 0.25 0.25 91 1013.5
20240624043008 73 342 0.0 0.0 0.00 0.25 0.25 91 1011.1
20240624041513 74 342 0.0 0.0 0.00 0.25 0.25 90 1010.9
20240624040016 74 0.0 0.0 0.00 0.25 0.25 89 1013.3
20240624040005 74 342 0.0 0.0 0.00 0.25 0.25 89 1010.9
20240624034502 75 342 0.0 0.0 0.00 0.25 0.25 88 1010.8
20240624033100 76 342 0.0 0.0 0.00 0.25 0.25 87 1010.6
20240624033017 76 0.0 5.0 0.00 0.25 0.25 87 1013.0
20240624031600 77 342 0.0 0.0 0.00 0.25 0.25 85 1010.5
20240624030100 78 342 0.0 0.0 0.00 0.25 0.25 83 1010.3
20240624030016 78 333 0.0 5.0 0.00 0.25 0.25 83 1012.7
20240624024559 79 342 0.0 3.0 0.00 0.25 0.25 80 1010.0
20240624023059 79 335 2.0 5.0 0.00 0.25 0.25 79 1009.8
20240624023016 79 336 1.0 5.0 0.00 0.25 0.25 79 1012.3
20240624021601 80 344 1.0 3.0 0.00 0.25 0.25 78 1009.6
20240624020100 81 340 1.0 3.0 0.00 0.25 0.25 77 1009.4
20240624020016 81 332 2.0 6.0 0.00 0.25 0.25 76 1012.0
20240624014556 82 347 1.0 5.0 0.00 0.25 0.25 76 1009.4
20240624013055 82 329 2.0 6.0 0.00 0.25 0.25 75 1009.3
20240624013016 82 332 2.0 6.0 0.00 0.25 0.25 75 1011.9
20240624011603 83 341 2.0 5.0 0.00 0.25 0.25 75 1009.4
20240624010055 85 346 0.0 3.0 0.00 0.25 0.25 73 1009.3
20240624010016 85 333 1.0 11.0 0.00 0.25 0.25 73 1011.9
20240624004553 86 343 2.0 5.0 0.00 0.25 0.25 70 1009.1
20240624003110 87 328 1.0 5.0 0.00 0.25 0.25 68 1009.1
20240624003015 87 324 3.0 11.0 0.00 0.25 0.25 68 1011.7
20240624001554 88 340 3.0 8.0 0.00 0.25 0.25 67 1009.0
20240624000050 89 17 3.0 5.0 0.00 0.25 0.25 68 1009.0
20240624000016 89 320 3.0 11.0 0.00 0.25 0.25 68 1011.7
20240623234550 89 300 3.0 10.0 0.00 0.25 0.25 69 1009.0
20240623233048 89 295 3.0 8.0 0.00 0.25 0.25 70 1008.9
20240623233015 89 301 4.0 12.0 0.00 0.25 0.25 70 1011.5
20240623231547 89 335 4.0 10.0 0.00 0.25 0.25 70 1008.8
20240623230047 89 325 2.0 11.0 0.00 0.25 0.25 71 1008.7
20240623230015 89 280 4.0 12.0 0.00 0.25 0.25 70 1011.4
20240623224557 89 283 5.0 10.0 0.00 0.25 0.25 71 1008.7
20240623223045 89 264 4.0 9.0 0.00 0.25 0.25 72 1008.6
20240623223015 89 276 3.0 10.0 0.00 0.25 0.25 72 1011.3
20240623221542 89 288 2.0 6.0 0.00 0.25 0.25 76 1008.6
20240623220038 88 284 3.0 7.0 0.00 0.25 0.25 77 1008.8
20240623220015 88 280 3.0 10.0 0.00 0.25 0.25 77 1011.4
20240623214537 87 286 5.0 9.0 0.00 0.25 0.25 77 1008.8
20240623213034 87 276 5.0 8.0 0.00 0.25 0.25 79 1009.0
20240623213015 87 267 3.0 11.0 0.00 0.25 0.25 79 1011.6
20240623211533 87 276 2.0 7.0 0.00 0.25 0.25 79 1009.0
20240623210032 87 332 3.0 8.0 0.00 0.25 0.25 79 1008.9
20240623210015 87 260 3.0 11.0 0.00 0.25 0.25 79 1011.6
20240623204531 87 243 3.0 10.0 0.00 0.25 0.25 78 1009.0
20240623203036 87 207 2.0 8.0 0.00 0.25 0.25 80 1009.2
20240623203016 87 230 3.0 14.0 0.00 0.25 0.25 81 1011.8
20240623201526 87 232 4.0 9.0 0.00 0.25 0.25 79 1009.3
20240623200025 87 219 3.0 11.0 0.00 0.25 0.25 79 1009.4
20240623200015 87 218 5.0 14.0 0.00 0.25 0.25 79 1011.9
20240623194524 86 205 4.0 9.0 0.00 0.25 0.25 79 1009.6
20240623193022 86 186 6.0 10.0 0.00 0.25 0.25 79 1009.7
20240623193016 86 229 4.0 12.0 0.00 0.25 0.25 79 1012.2
20240623191517 86 225 6.0 11.0 0.00 0.25 0.25 78 1009.8
20240623190015 86 240 4.0 14.0 0.00 0.25 0.25 81 1012.4
20240623184518 85 241 4.0 8.0 0.00 0.25 0.25 79 1009.9
20240623183015 85 237 4.0 14.0 0.00 0.25 0.25 81 1012.6
20240623183009 85 199 4.0 8.0 0.00 0.25 0.25 81 1010.0
20240623181515 84 281 3.0 8.0 0.00 0.25 0.25 82 1009.9
20240623180015 84 248 2.0 9.0 0.00 0.25 0.25 81 1012.6
20240623180005 84 230 3.0 7.0 0.00 0.25 0.25 81 1010.1
20240623174501 84 208 1.0 5.0 0.00 0.25 0.25 85 1010.2
20240623173104 83 230 2.0 8.0 0.00 0.25 0.25 83 1010.2
20240623173016 83 220 3.0 9.0 0.00 0.25 0.25 83 1012.8
20240623171556 83 226 2.0 7.0 0.00 0.25 0.25 86 1010.4
20240623170053 82 199 4.0 9.0 0.00 0.25 0.25 87 1010.5
20240623170016 82 211 3.0 11.0 0.00 0.25 0.25 88 1013.1
20240623164551 80 214 4.0 8.0 0.00 0.25 0.25 89 1010.6
20240623163049 80 191 2.0 7.0 0.00 0.25 0.25 91 1010.7
20240623163017 80 201 4.0 11.0 0.00 0.25 0.25 91 1013.4
20240623161554 79 212 4.0 6.0 0.00 0.25 0.25 92 1010.6
20240623160047 78 198 6.0 11.0 0.03 0.25 0.25 93 1010.7
20240623160017 78 199 3.0 10.0 0.03 0.25 0.25 93 1013.3
20240623154544 77 178 4.0 7.0 0.15 0.25 0.25 93 1010.9
20240623153042 76 174 2.0 7.0 0.25 0.25 0.25 94 1010.8
20240623153018 76 188 3.0 12.0 0.25 0.25 0.25 94 1013.2
20240623151550 76 201 3.0 5.0 0.25 0.25 0.25 92 1010.8
20240623150037 76 179 2.0 5.0 0.22 0.22 0.22 88 1011.2
20240623150017 76 251 3.0 12.0 0.22 0.22 0.22 88 1013.6
20240623144533 79 307 3.0 8.0 0.09 0.09 0.09 84 1011.8
20240623143033 81 238 3.0 10.0 0.00 0.00 0.00 78 1011.4
20240623143018 81 242 4.0 13.0 0.00 0.00 0.00 78 1013.7
20240623141530 82 300 3.0 8.0 0.00 0.00 0.00 77 1011.2
20240623140032 82 230 5.0 12.0 0.00 0.00 0.00 77 1011.1
20240623140017 82 228 4.0 13.0 0.00 0.00 0.00 77 1013.6
20240623134531 82 226 3.0 11.0 0.00 0.00 0.00 77 1011.2
20240623133025 82 273 7.0 12.0 0.00 0.00 0.00 76 1011.1
20240623133018 82 220 4.0 13.0 0.00 0.00 0.00 76 1013.8
20240623131523 81 210 4.0 8.0 0.00 0.00 0.00 77 1011.0
20240623130018 80 252 3.0 13.0 0.00 0.00 0.00 77 1011.0
20240623124515 80 200 5.0 11.0 0.00 0.00 0.00 77 1010.9